createdAt,value
2022-10-07T00:00:34.167Z,21.15
2022-10-07T00:02:56.699Z,21.70
2022-10-07T00:05:19.283Z,24.47
2022-10-07T00:07:42.309Z,23.17
2022-10-07T00:10:05.627Z,22.30
2022-10-07T00:12:28.946Z,21.67
2022-10-07T00:14:51.458Z,23.02
2022-10-07T00:17:14.056Z,21.07
2022-10-07T00:19:37.118Z,22.85
2022-10-07T00:21:59.655Z,24.65
2022-10-07T00:24:22.176Z,20.48
2022-10-07T00:26:44.667Z,22.48
2022-10-07T00:29:07.754Z,23.37
2022-10-07T00:31:34.308Z,24.13
2022-10-07T00:33:58.627Z,23.52
2022-10-07T00:36:26.488Z,24.05
2022-10-07T00:38:53.877Z,22.95
2022-10-07T00:41:19.775Z,24.80
2022-10-07T00:43:42.373Z,24.77
2022-10-07T00:46:11.406Z,23.23
2022-10-07T00:48:35.539Z,22.35
2022-10-07T00:51:00.252Z,21.90
2022-10-07T00:53:25.937Z,23.13
2022-10-07T00:55:48.694Z,25.45
2022-10-07T00:58:11.682Z,24.65
2022-10-07T01:00:34.286Z,22.48
2022-10-07T01:02:56.767Z,27.42
2022-10-07T01:05:20.850Z,22.00
2022-10-07T01:07:46.728Z,24.23
2022-10-07T01:10:12.012Z,23.48
2022-10-07T01:12:34.560Z,24.38
2022-10-07T01:15:08.999Z,27.45
2022-10-07T01:17:49.179Z,24.03
2022-10-07T01:20:32.120Z,24.55
2022-10-07T01:22:57.456Z,24.08
2022-10-07T01:25:38.497Z,27.25
2022-10-07T01:28:08.138Z,22.67
2022-10-07T01:30:33.392Z,23.47
2022-10-07T01:33:04.434Z,20.67
2022-10-07T01:35:32.751Z,26.85
2022-10-07T01:38:00.481Z,22.63
2022-10-07T01:40:27.680Z,25.02
2022-10-07T01:42:52.027Z,23.33
2022-10-07T01:45:21.217Z,21.85
2022-10-07T01:47:43.956Z,22.88
2022-10-07T01:50:17.002Z,23.45
2022-10-07T01:52:51.575Z,24.25
2022-10-07T01:55:47.569Z,23.13
2022-10-07T01:58:16.379Z,23.70
2022-10-07T02:00:45.976Z,25.38
2022-10-07T02:03:31.025Z,22.17
2022-10-07T02:06:19.959Z,23.98
2022-10-07T02:08:48.953Z,24.50
2022-10-07T02:11:22.005Z,22.45
2022-10-07T02:14:20.504Z,23.73
2022-10-07T02:16:46.934Z,26.58
2022-10-07T02:19:35.739Z,25.45
2022-10-07T02:22:02.098Z,24.43
2022-10-07T02:24:28.570Z,23.55
2022-10-07T02:26:54.387Z,23.27
2022-10-07T02:29:21.067Z,23.13
2022-10-07T02:31:48.447Z,22.48
2022-10-07T02:34:19.565Z,25.20
2022-10-07T02:36:47.786Z,23.05
2022-10-07T02:39:11.532Z,24.80
2022-10-07T02:41:50.444Z,27.75
2022-10-07T02:44:35.316Z,28.23
2022-10-07T02:47:10.736Z,24.47
2022-10-07T02:49:39.277Z,22.42
2022-10-07T02:52:06.578Z,22.05
2022-10-07T02:54:45.876Z,23.08
2022-10-07T02:57:10.855Z,22.05
2022-10-07T02:59:35.968Z,24.53
2022-10-07T03:02:02.519Z,21.25
2022-10-07T03:04:25.134Z,25.52
2022-10-07T03:06:47.803Z,22.75
2022-10-07T03:09:11.371Z,23.45
2022-10-07T03:11:35.356Z,23.37
2022-10-07T03:13:58.526Z,25.58
2022-10-07T03:16:21.664Z,24.00
2022-10-07T03:18:46.280Z,24.13
2022-10-07T03:21:29.418Z,23.27
2022-10-07T03:23:54.680Z,24.03
2022-10-07T03:26:21.635Z,24.65
2022-10-07T03:28:45.882Z,26.70
2022-10-07T03:31:11.887Z,24.67
2022-10-07T03:33:39.569Z,26.15
2022-10-07T03:36:08.270Z,25.77
2022-10-07T03:38:32.476Z,27.33
2022-10-07T03:40:55.032Z,25.02
2022-10-07T03:43:18.238Z,24.10
2022-10-07T03:45:50.869Z,24.13
2022-10-07T03:48:13.551Z,28.93
2022-10-07T03:50:36.641Z,24.92
2022-10-07T03:52:59.260Z,24.85
2022-10-07T03:55:22.393Z,25.75
2022-10-07T03:57:54.311Z,27.30
2022-10-07T04:00:22.505Z,27.80
2022-10-07T04:02:50.229Z,28.98
2022-10-07T04:05:17.923Z,26.52
2022-10-07T04:07:41.101Z,26.58
2022-10-07T04:10:03.900Z,27.88
2022-10-07T04:12:26.778Z,26.53
2022-10-07T04:14:50.538Z,27.60
2022-10-07T04:17:14.332Z,27.20
2022-10-07T04:19:37.898Z,26.27
2022-10-07T04:22:07.626Z,27.10
2022-10-07T04:24:31.263Z,28.97
2022-10-07T04:26:54.000Z,27.75
2022-10-07T04:29:17.282Z,28.55
2022-10-07T04:31:41.238Z,25.90
2022-10-07T04:34:04.579Z,27.58
2022-10-07T04:36:31.160Z,26.07
2022-10-07T04:39:05.383Z,26.60
2022-10-07T04:41:31.659Z,24.17
2022-10-07T04:43:57.574Z,26.77
2022-10-07T04:46:22.261Z,27.67
2022-10-07T04:48:50.494Z,27.60
2022-10-07T04:51:18.443Z,26.40
2022-10-07T04:53:45.054Z,24.63
2022-10-07T04:56:08.250Z,29.63
2022-10-07T04:58:31.722Z,25.40
2022-10-07T05:00:55.790Z,27.73
2022-10-07T05:03:21.705Z,28.33
2022-10-07T05:05:47.631Z,29.70
2022-10-07T05:08:11.258Z,28.13
2022-10-07T05:10:36.515Z,29.13
2022-10-07T05:12:59.095Z,31.07
2022-10-07T05:15:21.650Z,26.55
2022-10-07T05:17:44.600Z,30.83
2022-10-07T05:20:09.034Z,28.88
2022-10-07T05:22:33.514Z,30.88
2022-10-07T05:24:56.259Z,29.73
2022-10-07T05:27:19.127Z,28.25
2022-10-07T05:29:41.869Z,32.70
2022-10-07T05:32:28.004Z,29.23
2022-10-07T05:34:52.297Z,27.10
2022-10-07T05:37:15.309Z,31.43
2022-10-07T05:39:39.789Z,32.15
2022-10-07T05:42:13.774Z,29.08
2022-10-07T05:44:44.295Z,30.55
2022-10-07T05:47:08.582Z,28.13
2022-10-07T05:49:31.389Z,28.93
2022-10-07T05:51:54.627Z,31.33
2022-10-07T05:54:18.478Z,30.63
2022-10-07T05:56:41.858Z,27.95
2022-10-07T05:59:05.492Z,33.25
2022-10-07T06:01:28.482Z,28.87
2022-10-07T06:03:57.421Z,29.58
2022-10-07T06:06:23.795Z,32.05
2022-10-07T06:08:48.106Z,28.17
2022-10-07T06:11:31.612Z,31.23
2022-10-07T06:13:55.264Z,27.83
2022-10-07T06:16:17.963Z,29.30
2022-10-07T06:18:41.002Z,33.05
2022-10-07T06:21:04.813Z,47.42
2022-10-07T06:23:29.145Z,31.98
2022-10-07T06:25:56.881Z,30.87
2022-10-07T06:28:20.829Z,29.95
2022-10-07T06:30:44.802Z,32.35
2022-10-07T06:33:07.447Z,34.28
2022-10-07T06:35:30.680Z,31.60
2022-10-07T06:37:53.827Z,29.30
2022-10-07T06:40:17.008Z,30.65
2022-10-07T06:42:39.712Z,29.92
2022-10-07T06:45:26.957Z,28.73
2022-10-07T06:47:49.904Z,29.23
2022-10-07T06:50:12.559Z,30.03
2022-10-07T06:52:37.089Z,27.05
2022-10-07T06:55:01.651Z,31.15
2022-10-07T06:57:44.733Z,30.92
2022-10-07T07:00:10.050Z,28.80
2022-10-07T07:02:35.808Z,30.90
2022-10-07T07:04:59.833Z,27.20
2022-10-07T07:07:24.949Z,29.15
2022-10-07T07:09:48.656Z,31.30
2022-10-07T07:12:11.277Z,32.55
2022-10-07T07:14:37.987Z,29.43
2022-10-07T07:17:05.532Z,27.42
2022-10-07T07:19:28.570Z,24.83
2022-10-07T07:21:52.276Z,25.15
2022-10-07T07:24:17.300Z,26.15
2022-10-07T07:26:41.936Z,24.63
2022-10-07T07:29:06.962Z,27.00
2022-10-07T07:31:37.591Z,25.35
2022-10-07T07:34:03.678Z,28.02
2022-10-07T07:36:29.414Z,24.75
2022-10-07T07:38:57.482Z,26.17
2022-10-07T07:41:32.769Z,26.20
2022-10-07T07:43:59.306Z,23.80
2022-10-07T07:46:23.956Z,30.67
2022-10-07T07:48:47.108Z,25.05
2022-10-07T07:51:10.914Z,25.40
2022-10-07T07:53:34.433Z,25.58
2022-10-07T07:55:57.623Z,30.13
2022-10-07T07:58:23.178Z,25.58
2022-10-07T08:00:56.894Z,28.90
2022-10-07T08:03:19.926Z,24.30
2022-10-07T08:05:42.552Z,23.83
2022-10-07T08:08:05.219Z,24.25
2022-10-07T08:10:29.085Z,25.45
2022-10-07T08:12:51.665Z,25.10
2022-10-07T08:15:15.182Z,24.40
2022-10-07T08:17:38.422Z,25.73
2022-10-07T08:20:02.580Z,24.15
2022-10-07T08:22:25.385Z,22.70
2022-10-07T08:24:48.861Z,24.17
2022-10-07T08:27:13.270Z,20.90
2022-10-07T08:29:35.809Z,22.40
2022-10-07T08:31:58.571Z,23.80
2022-10-07T08:34:21.190Z,19.83
2022-10-07T08:36:50.445Z,22.98
2022-10-07T08:39:15.020Z,20.47
2022-10-07T08:42:01.271Z,18.63
2022-10-07T08:44:29.064Z,21.77
2022-10-07T08:47:20.445Z,17.63
2022-10-07T08:49:54.081Z,24.15
2022-10-07T08:52:26.540Z,19.20
2022-10-07T08:54:49.570Z,21.23
2022-10-07T08:57:23.390Z,20.77
2022-10-07T08:59:53.345Z,22.60
2022-10-07T09:02:27.481Z,21.52
2022-10-07T09:05:17.048Z,20.70
2022-10-07T09:07:48.206Z,17.60
2022-10-07T09:10:26.429Z,17.70
2022-10-07T09:13:33.738Z,19.40
2022-10-07T09:16:29.085Z,17.42
2022-10-07T09:18:56.242Z,24.83
2022-10-07T09:21:23.660Z,19.38
2022-10-07T09:23:47.222Z,19.13
2022-10-07T09:26:12.219Z,20.20
2022-10-07T09:28:35.948Z,16.60
2022-10-07T09:31:00.710Z,20.40
2022-10-07T09:33:25.112Z,18.20
2022-10-07T09:35:57.581Z,19.50
2022-10-07T09:38:31.849Z,17.45
2022-10-07T09:41:16.933Z,14.07
2022-10-07T09:43:52.407Z,17.30
2022-10-07T09:46:31.572Z,17.67
2022-10-07T09:48:55.510Z,14.32
2022-10-07T09:51:25.629Z,14.38
2022-10-07T09:53:57.942Z,15.35
2022-10-07T09:56:39.431Z,15.77
2022-10-07T09:59:24.321Z,15.13
2022-10-07T10:01:52.845Z,14.82
2022-10-07T10:04:17.356Z,14.48
2022-10-07T10:06:49.347Z,13.35
2022-10-07T12:31:16.577Z,9.17
2022-10-07T12:33:45.965Z,9.85
2022-10-07T12:36:26.525Z,8.27
2022-10-07T12:38:56.864Z,8.05
2022-10-07T12:41:39.772Z,9.35
2022-10-07T12:44:08.112Z,9.23
2022-10-07T12:46:38.025Z,10.52
2022-10-07T12:49:06.438Z,8.50
2022-10-07T12:51:37.683Z,10.65
2022-10-07T12:54:01.208Z,7.40
2022-10-07T12:56:27.999Z,9.40
2022-10-07T12:59:21.177Z,8.40
2022-10-07T13:02:14.993Z,9.50
2022-10-07T13:04:56.117Z,7.90
2022-10-07T13:07:56.151Z,8.45
2022-10-07T13:10:30.932Z,7.77
2022-10-07T13:13:01.716Z,7.88
2022-10-07T13:15:41.359Z,9.30
2022-10-07T13:18:16.801Z,10.15
2022-10-07T13:21:10.608Z,8.52
2022-10-07T13:23:34.153Z,7.23
2022-10-07T13:25:59.698Z,8.48
2022-10-07T13:28:25.715Z,9.45
2022-10-07T13:30:50.461Z,6.47
2022-10-07T13:33:15.674Z,8.63
2022-10-07T13:35:39.793Z,6.87
2022-10-07T13:38:02.628Z,9.30
2022-10-07T13:40:30.613Z,12.23
2022-10-07T13:42:59.764Z,8.00
2022-10-07T13:45:23.247Z,6.75
2022-10-07T13:47:47.127Z,7.77
2022-10-07T13:50:18.560Z,9.98
2022-10-07T13:52:47.054Z,10.10
2022-10-07T13:55:26.676Z,9.05
2022-10-07T13:57:50.564Z,9.00
2022-10-07T14:00:13.870Z,7.17
2022-10-07T14:02:40.111Z,10.07
2022-10-07T14:05:18.606Z,8.73
2022-10-07T14:07:41.917Z,7.85
2022-10-07T14:10:09.935Z,12.05
2022-10-07T14:12:42.365Z,7.10
2022-10-07T14:15:06.729Z,7.70
2022-10-07T14:17:47.677Z,7.63
2022-10-07T14:20:30.254Z,7.32
2022-10-07T14:22:56.675Z,8.13
2022-10-07T14:25:22.264Z,7.20
2022-10-07T14:27:55.142Z,8.40
2022-10-07T14:31:27.327Z,7.30
2022-10-07T14:34:29.247Z,8.15
2022-10-07T14:37:09.495Z,8.60
2022-10-07T14:39:42.409Z,8.43
2022-10-07T14:42:10.132Z,8.77
2022-10-07T14:44:32.810Z,7.97
2022-10-07T14:47:13.793Z,9.82
2022-10-07T14:49:36.525Z,6.88
2022-10-07T14:52:00.352Z,10.27
2022-10-07T14:54:22.946Z,8.23
2022-10-07T14:56:45.570Z,10.82
2022-10-07T14:59:14.934Z,11.52
2022-10-07T15:01:37.506Z,10.73
2022-10-07T15:04:00.266Z,9.00
2022-10-07T15:06:22.997Z,16.55
2022-10-07T15:08:46.747Z,7.95
2022-10-07T15:11:09.987Z,8.43
2022-10-07T15:13:32.737Z,8.32
2022-10-07T15:15:55.637Z,7.07
2022-10-07T15:18:18.199Z,7.70
2022-10-07T15:20:41.116Z,7.93
2022-10-07T15:23:03.981Z,7.82
2022-10-07T15:25:27.099Z,7.75
2022-10-07T15:27:50.027Z,9.00
2022-10-07T15:30:13.160Z,10.00
2022-10-07T15:32:35.886Z,10.60
2022-10-07T15:34:58.844Z,9.68
2022-10-07T15:37:22.599Z,10.55
2022-10-07T15:39:45.236Z,10.50
2022-10-07T15:42:08.221Z,12.48
2022-10-07T15:44:30.982Z,11.30
2022-10-07T15:46:54.710Z,12.95
2022-10-07T15:49:17.210Z,10.10
2022-10-07T15:51:40.102Z,10.90
2022-10-07T15:54:03.664Z,9.02
2022-10-07T15:56:26.171Z,11.13
2022-10-07T15:58:49.076Z,14.68
2022-10-07T16:01:12.454Z,12.93
2022-10-07T16:03:40.574Z,12.67
2022-10-07T16:06:03.243Z,11.18
2022-10-07T16:08:26.510Z,10.48
2022-10-07T16:10:49.086Z,10.23
2022-10-07T16:13:11.957Z,9.00
2022-10-07T16:15:35.846Z,9.90
2022-10-07T16:17:58.592Z,9.73
2022-10-07T16:20:21.504Z,8.43
2022-10-07T16:22:44.268Z,11.80
2022-10-07T16:25:07.286Z,15.55
2022-10-07T16:27:50.063Z,12.50
2022-10-07T16:30:31.669Z,13.30
2022-10-07T16:32:54.280Z,12.02
2022-10-07T16:35:18.700Z,14.80
2022-10-07T16:37:41.537Z,13.18
2022-10-07T16:40:04.557Z,12.60
2022-10-07T16:42:28.236Z,12.50
2022-10-07T16:44:51.388Z,14.15
2022-10-07T16:47:14.089Z,14.93
2022-10-07T16:49:36.911Z,18.00
2022-10-07T16:51:59.686Z,15.03
2022-10-07T16:54:22.331Z,17.98
2022-10-07T16:56:48.134Z,15.25
2022-10-07T16:59:12.178Z,16.27
2022-10-07T17:01:35.132Z,19.55
2022-10-07T17:04:00.497Z,19.57
2022-10-07T17:06:24.963Z,22.02
2022-10-07T17:08:49.166Z,23.17
2022-10-07T17:11:28.699Z,26.15
2022-10-07T17:13:51.783Z,29.30
2022-10-07T17:16:16.697Z,29.27
2022-10-07T17:18:39.292Z,29.45
2022-10-07T17:21:01.899Z,34.95
2022-10-07T17:23:27.264Z,35.50
2022-10-07T17:25:50.226Z,38.03
2022-10-07T17:28:16.371Z,43.10
2022-10-07T17:30:39.388Z,47.55
2022-10-07T17:33:01.939Z,51.85
2022-10-07T17:35:24.617Z,42.13
2022-10-07T17:37:49.383Z,44.67
2022-10-07T17:40:12.021Z,44.13
2022-10-07T17:42:35.383Z,44.17
2022-10-07T17:44:58.178Z,43.17
2022-10-07T17:47:20.794Z,41.55
2022-10-07T17:49:43.571Z,38.15
2022-10-07T17:52:06.943Z,35.33
2022-10-07T17:54:29.506Z,34.97
2022-10-07T17:56:52.645Z,34.20
2022-10-07T17:59:16.037Z,31.95
2022-10-07T18:01:38.960Z,36.03
2022-10-07T18:04:07.611Z,28.80
2022-10-07T18:06:33.616Z,31.15
2022-10-07T18:08:59.157Z,24.70
2022-10-07T18:11:22.270Z,23.48
2022-10-07T18:14:03.899Z,26.10
2022-10-07T18:16:27.047Z,26.27
2022-10-07T18:18:56.495Z,23.30
2022-10-07T18:21:20.371Z,22.65
2022-10-07T18:23:43.895Z,22.77
2022-10-07T18:26:11.676Z,21.55
2022-10-07T18:28:35.466Z,19.80
2022-10-07T18:30:58.588Z,18.38
2022-10-07T18:33:21.279Z,20.42
2022-10-07T18:35:43.953Z,21.77
2022-10-07T18:38:06.791Z,23.33
2022-10-07T18:40:30.655Z,22.37
2022-10-07T18:42:53.218Z,22.70
2022-10-07T18:45:16.264Z,21.52
2022-10-07T18:47:38.739Z,19.20
2022-10-07T18:50:01.656Z,22.20
2022-10-07T18:52:24.260Z,26.17
2022-10-07T18:54:46.969Z,31.23
2022-10-07T18:57:09.516Z,37.53
2022-10-07T18:59:32.727Z,37.92
2022-10-07T19:01:55.479Z,37.67
2022-10-07T19:04:19.186Z,34.33
2022-10-07T19:06:46.456Z,38.10
2022-10-07T19:09:14.182Z,38.20
2022-10-07T19:11:36.789Z,36.30
2022-10-07T19:14:00.073Z,39.42
2022-10-07T19:16:29.600Z,38.03
2022-10-07T19:18:54.544Z,36.60
2022-10-07T19:21:20.187Z,38.92
2022-10-07T19:23:43.609Z,38.30
2022-10-07T19:26:07.111Z,42.45
2022-10-07T19:28:31.096Z,42.03
2022-10-07T19:30:55.184Z,40.65
2022-10-07T19:33:17.861Z,42.17
2022-10-07T19:35:40.486Z,44.00
2022-10-07T19:38:05.987Z,43.10
2022-10-07T19:40:29.469Z,45.00
2022-10-07T19:42:52.384Z,49.13
2022-10-07T19:45:15.500Z,52.17
2022-10-07T19:47:38.085Z,45.17
2022-10-07T19:50:01.996Z,49.72
2022-10-07T19:52:27.429Z,50.93
2022-10-07T19:54:51.550Z,43.72
2022-10-07T19:57:14.323Z,44.22
2022-10-07T19:59:37.503Z,44.00
2022-10-07T20:02:01.233Z,48.08
2022-10-07T20:04:24.661Z,44.37
2022-10-07T20:06:47.684Z,45.33
2022-10-07T20:09:19.628Z,42.83
2022-10-07T20:11:43.139Z,46.50
2022-10-07T20:14:06.667Z,45.85
2022-10-07T20:16:31.125Z,44.37
2022-10-07T20:19:02.203Z,45.17
2022-10-07T20:21:24.843Z,46.80
2022-10-07T20:23:48.216Z,42.75
2022-10-07T20:26:16.053Z,42.50
2022-10-07T20:28:39.092Z,42.67
2022-10-07T20:31:10.388Z,48.70
2022-10-07T20:33:43.869Z,44.65
2022-10-07T20:36:07.538Z,44.90
2022-10-07T20:38:30.092Z,48.58
2022-10-07T20:41:11.486Z,44.20
2022-10-07T20:43:34.121Z,43.08
2022-10-07T20:45:56.669Z,42.15
2022-10-07T20:48:19.225Z,44.38
2022-10-07T20:50:42.254Z,44.40
2022-10-07T20:53:04.933Z,41.87
2022-10-07T20:55:27.830Z,45.78
2022-10-07T20:57:51.215Z,48.90
2022-10-07T21:00:16.858Z,45.40
2022-10-07T21:02:39.582Z,47.13
2022-10-07T21:05:02.135Z,44.40
2022-10-07T21:07:24.685Z,44.30
2022-10-07T21:09:47.935Z,44.75
2022-10-07T21:12:13.840Z,40.88
2022-10-07T21:14:36.761Z,50.08
2022-10-07T21:17:00.099Z,46.00
2022-10-07T21:19:23.289Z,42.10
2022-10-07T21:21:46.143Z,40.10
2022-10-07T21:24:08.985Z,40.50
2022-10-07T21:26:31.625Z,38.63
2022-10-07T21:28:54.167Z,36.73
2022-10-07T21:31:20.046Z,43.42
2022-10-07T21:33:44.183Z,42.75
2022-10-07T21:36:10.651Z,41.03
2022-10-07T21:38:34.254Z,45.25
2022-10-07T21:41:00.336Z,40.47
2022-10-07T21:43:23.006Z,41.67
2022-10-07T21:45:45.675Z,41.88
2022-10-07T21:48:08.248Z,44.45
2022-10-07T21:50:30.772Z,43.78
2022-10-07T21:52:53.215Z,43.67
2022-10-07T21:55:15.972Z,51.60
2022-10-07T21:57:41.831Z,47.33
2022-10-07T22:00:04.963Z,47.90
2022-10-07T22:02:34.675Z,47.20
2022-10-07T22:04:57.719Z,47.40
2022-10-07T22:07:58.615Z,49.28
2022-10-07T22:10:21.173Z,44.63
2022-10-07T22:12:44.837Z,47.70
2022-10-07T22:15:08.288Z,44.65
2022-10-07T22:17:34.916Z,42.70
2022-10-07T22:19:58.803Z,46.15
2022-10-07T22:22:21.358Z,43.47
2022-10-07T22:24:43.916Z,46.85
2022-10-07T22:27:06.463Z,41.72
2022-10-07T22:29:29.694Z,40.83
2022-10-07T22:31:52.745Z,40.80
2022-10-07T22:34:34.254Z,40.75
2022-10-07T22:36:58.191Z,43.88
2022-10-07T22:39:20.732Z,44.08
2022-10-07T22:41:43.385Z,46.57
2022-10-07T22:44:05.907Z,46.20
2022-10-07T22:46:28.838Z,45.17
2022-10-07T22:48:53.833Z,40.53
2022-10-07T22:51:17.062Z,40.78
2022-10-07T22:53:48.163Z,43.87
2022-10-07T22:56:16.462Z,43.58
2022-10-07T22:58:41.200Z,47.65
2022-10-07T23:01:04.646Z,46.28
2022-10-07T23:03:28.499Z,44.72
2022-10-07T23:05:51.413Z,42.47
2022-10-07T23:08:13.983Z,45.65
2022-10-07T23:10:36.680Z,47.72
2022-10-07T23:13:03.592Z,46.25
2022-10-07T23:15:26.284Z,48.55
2022-10-07T23:17:49.542Z,43.20
2022-10-07T23:20:12.172Z,42.75
2022-10-07T23:22:35.448Z,40.67
2022-10-07T23:24:58.242Z,44.80
2022-10-07T23:27:20.807Z,46.03
2022-10-07T23:29:43.492Z,41.93
2022-10-07T23:32:05.941Z,45.50
2022-10-07T23:34:28.532Z,47.17
2022-10-07T23:36:55.155Z,46.03
2022-10-07T23:39:19.851Z,47.40
2022-10-07T23:41:42.368Z,45.77
2022-10-07T23:44:05.446Z,44.40
2022-10-07T23:46:29.637Z,46.35
2022-10-07T23:48:53.052Z,46.60
2022-10-07T23:51:21.413Z,46.80
2022-10-07T23:53:44.665Z,49.07
2022-10-07T23:56:07.837Z,45.50
2022-10-07T23:58:31.922Z,45.88
